createdAt,value
2018-07-15T00:01:52.810Z,5.97
2018-07-15T00:04:20.398Z,5.93
2018-07-15T00:06:48.013Z,5.67
2018-07-15T00:09:15.670Z,5.53
2018-07-15T00:11:43.288Z,5.50
2018-07-15T00:14:10.906Z,5.73
2018-07-15T00:16:38.562Z,5.73
2018-07-15T00:19:06.219Z,6.40
2018-07-15T00:21:33.820Z,5.63
2018-07-15T00:24:01.443Z,5.43
2018-07-15T00:26:29.058Z,5.67
2018-07-15T00:28:56.732Z,5.47
2018-07-15T00:31:24.394Z,5.80
2018-07-15T00:33:52.030Z,5.90
2018-07-15T00:36:19.653Z,6.23
2018-07-15T00:38:47.233Z,5.77
2018-07-15T00:41:14.821Z,6.13
2018-07-15T00:43:42.462Z,5.93
2018-07-15T00:46:10.088Z,6.43
2018-07-15T00:48:37.670Z,5.73
2018-07-15T00:51:05.204Z,6.13
2018-07-15T00:53:32.837Z,6.40
2018-07-15T00:56:00.433Z,6.13
2018-07-15T00:58:28.082Z,6.17
2018-07-15T01:01:01.129Z,6.30
2018-07-15T01:03:28.910Z,6.37
2018-07-15T01:05:56.563Z,6.07
2018-07-15T01:08:24.166Z,5.97
2018-07-15T01:10:51.808Z,6.33
2018-07-15T01:13:19.457Z,6.53
2018-07-15T01:15:47.020Z,6.50
2018-07-15T01:18:14.691Z,5.87
2018-07-15T01:20:42.350Z,6.13
2018-07-15T01:23:09.938Z,6.43
2018-07-15T01:25:37.582Z,6.60
2018-07-15T01:28:05.213Z,6.10
2018-07-15T01:30:32.844Z,6.90
2018-07-15T01:33:00.444Z,6.40
2018-07-15T01:35:28.250Z,6.37
2018-07-15T01:37:55.881Z,6.50
2018-07-15T01:40:23.485Z,7.03
2018-07-15T01:42:51.114Z,6.53
2018-07-15T01:45:18.685Z,7.90
2018-07-15T01:47:46.301Z,7.20
2018-07-15T01:50:13.892Z,6.67
2018-07-15T01:52:41.504Z,7.90
2018-07-15T01:55:09.150Z,7.10
2018-07-15T01:57:36.738Z,7.83
2018-07-15T02:00:04.844Z,7.10
2018-07-15T02:02:32.578Z,8.17
2018-07-15T02:05:00.171Z,7.70
2018-07-15T02:07:27.770Z,7.33
2018-07-15T02:09:55.381Z,7.23
2018-07-15T02:12:22.955Z,8.23
2018-07-15T02:14:50.581Z,7.43
2018-07-15T02:17:18.231Z,7.20
2018-07-15T02:19:45.845Z,7.83
2018-07-15T02:22:13.405Z,7.17
2018-07-15T02:24:40.990Z,6.93
2018-07-15T02:27:08.602Z,7.00
2018-07-15T02:29:36.245Z,8.10
2018-07-15T02:32:03.832Z,7.17
2018-07-15T02:34:31.430Z,7.20
2018-07-15T02:36:59.345Z,6.80
2018-07-15T02:39:26.920Z,7.03
2018-07-15T02:41:54.533Z,6.47
2018-07-15T02:44:22.169Z,7.20
2018-07-15T02:46:49.772Z,7.37
2018-07-15T02:49:17.421Z,7.20
2018-07-15T02:51:45.039Z,6.90
2018-07-15T02:54:12.660Z,6.83
2018-07-15T02:56:40.269Z,7.27
2018-07-15T02:59:07.883Z,7.67
2018-07-15T03:01:35.654Z,7.77
2018-07-15T03:04:03.230Z,8.03
2018-07-15T03:06:30.847Z,7.83
2018-07-15T03:08:58.417Z,7.30
2018-07-15T03:11:26.033Z,7.77
2018-07-15T03:13:53.635Z,7.50
2018-07-15T03:16:21.245Z,7.13
2018-07-15T03:18:48.854Z,7.43
2018-07-15T03:21:16.489Z,7.53
2018-07-15T03:23:43.976Z,7.40
2018-07-15T03:26:11.573Z,7.57
2018-07-15T03:28:39.201Z,7.47
2018-07-15T03:31:06.805Z,7.97
2018-07-15T03:33:34.389Z,6.63
2018-07-15T03:36:02.008Z,8.07
2018-07-15T03:38:29.585Z,8.03
2018-07-15T03:40:57.231Z,7.73
2018-07-15T03:43:24.985Z,7.47
2018-07-15T03:45:52.557Z,7.60
2018-07-15T03:48:20.165Z,6.80
2018-07-15T03:50:47.768Z,7.57
2018-07-15T03:53:15.363Z,7.17
2018-07-15T03:55:42.941Z,6.77
2018-07-15T03:58:10.546Z,7.40
2018-07-15T04:00:38.228Z,6.90
2018-07-15T04:03:06.001Z,7.40
2018-07-15T04:05:33.637Z,7.50
2018-07-15T04:08:01.219Z,7.60
2018-07-15T04:10:28.832Z,7.97
2018-07-15T04:12:56.429Z,7.30
2018-07-15T04:15:24.003Z,7.03
2018-07-15T04:18:06.616Z,7.13
2018-07-15T04:20:35.518Z,7.17
2018-07-15T04:23:04.117Z,7.23
2018-07-15T04:25:32.797Z,7.80
2018-07-15T04:28:00.532Z,7.03
2018-07-15T04:30:28.181Z,8.03
2018-07-15T04:32:55.764Z,8.13
2018-07-15T04:35:23.405Z,7.40
2018-07-15T04:37:51.313Z,8.23
2018-07-15T04:40:19.557Z,7.40
2018-07-15T04:42:47.486Z,7.40
2018-07-15T04:45:15.145Z,7.83
2018-07-15T04:47:42.756Z,7.13
2018-07-15T04:50:10.304Z,8.00
2018-07-15T04:52:37.969Z,7.47
2018-07-15T04:55:05.719Z,8.30
2018-07-15T04:57:33.374Z,7.73
2018-07-15T05:00:00.997Z,7.97
2018-07-15T05:02:28.574Z,9.10
2018-07-15T05:04:56.139Z,8.57
2018-07-15T05:07:23.739Z,8.03
2018-07-15T05:09:51.383Z,8.73
2018-07-15T05:12:19.007Z,8.47
2018-07-15T05:14:46.617Z,8.27
2018-07-15T05:17:14.244Z,8.57
2018-07-15T05:19:41.859Z,8.57
2018-07-15T05:22:09.474Z,8.10
2018-07-15T05:24:37.081Z,8.53
2018-07-15T05:27:04.750Z,7.97
2018-07-15T05:29:32.363Z,8.33
2018-07-15T05:31:59.998Z,7.63
2018-07-15T05:34:27.617Z,7.80
2018-07-15T05:36:55.221Z,7.30
2018-07-15T05:39:22.749Z,7.10
2018-07-15T05:41:50.352Z,8.00
2018-07-15T05:44:18.020Z,6.83
2018-07-15T05:46:45.529Z,7.25
2018-07-15T05:49:13.172Z,7.80
2018-07-15T05:51:40.809Z,7.50
2018-07-15T05:54:08.430Z,6.90
2018-07-15T05:56:36.008Z,7.55
2018-07-15T05:59:03.687Z,7.75
2018-07-15T06:01:31.381Z,6.97
2018-07-15T06:03:58.965Z,7.30
2018-07-15T06:06:26.621Z,7.85
2018-07-15T06:08:54.234Z,7.62
2018-07-15T06:11:21.907Z,6.85
2018-07-15T06:13:49.565Z,7.30
2018-07-15T06:16:17.226Z,7.70
2018-07-15T06:18:44.789Z,7.47
2018-07-15T06:21:12.582Z,7.30
2018-07-15T06:23:40.271Z,7.80
2018-07-15T06:26:07.954Z,7.35
2018-07-15T06:28:35.620Z,8.03
2018-07-15T06:31:03.334Z,7.35
2018-07-15T06:33:30.928Z,7.35
2018-07-15T06:35:58.579Z,7.70
2018-07-15T06:38:26.189Z,7.53
2018-07-15T06:40:53.775Z,7.40
2018-07-15T06:43:21.398Z,8.00
2018-07-15T06:45:49.047Z,8.43
2018-07-15T06:48:16.647Z,7.58
2018-07-15T06:50:44.298Z,7.90
2018-07-15T06:53:11.887Z,7.60
2018-07-15T06:55:39.616Z,7.50
2018-07-15T06:58:07.385Z,7.60
2018-07-15T07:00:35.054Z,7.35
2018-07-15T07:03:02.645Z,7.50
2018-07-15T07:05:30.385Z,7.45
2018-07-15T07:07:58.152Z,7.25
2018-07-15T07:10:25.742Z,7.65
2018-07-15T07:12:53.338Z,7.72
2018-07-15T07:15:21.010Z,7.45
2018-07-15T07:17:48.645Z,6.85
2018-07-15T07:20:16.217Z,7.17
2018-07-15T07:22:43.841Z,8.18
2018-07-15T07:25:11.472Z,7.90
2018-07-15T07:27:39.041Z,7.75
2018-07-15T07:30:06.643Z,7.00
2018-07-15T07:32:34.265Z,7.72
2018-07-15T07:35:01.943Z,7.60
2018-07-15T07:37:29.575Z,7.25
2018-07-15T07:39:57.161Z,7.25
2018-07-15T07:42:24.932Z,7.33
2018-07-15T07:44:52.731Z,7.33
2018-07-15T07:47:20.360Z,6.40
2018-07-15T07:49:48.304Z,6.97
2018-07-15T07:52:16.222Z,6.80
2018-07-15T07:54:43.930Z,6.47
2018-07-15T07:57:11.533Z,6.45
2018-07-15T07:59:39.156Z,6.58
2018-07-15T08:02:06.859Z,6.87
2018-07-15T08:04:34.646Z,6.85
2018-07-15T08:07:02.312Z,6.33
2018-07-15T08:09:30.533Z,5.97
2018-07-15T08:11:58.292Z,5.17
2018-07-15T08:14:26.259Z,5.53
2018-07-15T08:16:54.000Z,5.37
2018-07-15T08:19:21.733Z,8.30
2018-07-15T08:21:49.373Z,5.90
2018-07-15T08:24:17.235Z,5.33
2018-07-15T08:26:44.904Z,5.35
2018-07-15T08:29:12.580Z,5.95
2018-07-15T08:31:40.168Z,5.80
2018-07-15T08:34:07.752Z,5.28
2018-07-15T08:36:35.383Z,4.28
2018-07-15T08:39:03.567Z,5.20
2018-07-15T08:41:31.192Z,4.87
2018-07-15T08:43:58.813Z,5.60
2018-07-15T08:46:26.430Z,5.60
2018-07-15T08:48:54.050Z,4.90
2018-07-15T08:51:21.751Z,4.58
2018-07-15T08:53:49.439Z,4.90
2018-07-15T08:56:17.094Z,8.65
2018-07-15T08:58:44.589Z,4.62
2018-07-15T09:01:12.244Z,4.10
2018-07-15T09:03:39.888Z,4.62
2018-07-15T09:06:07.544Z,6.08
2018-07-15T09:08:35.135Z,5.55
2018-07-15T09:11:02.765Z,5.40
2018-07-15T09:13:30.477Z,4.35
2018-07-15T09:15:58.073Z,4.55
2018-07-15T09:18:25.728Z,4.15
2018-07-15T09:20:53.304Z,3.70
2018-07-15T09:23:21.169Z,3.33
2018-07-15T09:25:48.981Z,3.90
2018-07-15T09:28:16.593Z,3.00
2018-07-15T09:30:44.217Z,3.00
2018-07-15T09:33:11.807Z,2.50
2018-07-15T09:35:39.498Z,3.33
2018-07-15T09:38:07.058Z,3.65
2018-07-15T09:40:34.702Z,3.33
2018-07-15T09:43:02.400Z,3.67
2018-07-15T09:45:30.058Z,3.22
2018-07-15T09:47:57.645Z,3.25
2018-07-15T09:50:25.308Z,3.27
2018-07-15T09:52:53.569Z,3.60
2018-07-15T09:55:21.364Z,3.12
2018-07-15T09:57:49.045Z,3.00
2018-07-15T10:00:22.437Z,2.90
2018-07-15T10:02:50.033Z,2.90
2018-07-15T10:05:17.789Z,3.27
2018-07-15T10:07:45.506Z,2.67
2018-07-15T10:10:13.193Z,3.17
2018-07-15T10:12:40.769Z,2.95
2018-07-15T10:15:08.409Z,2.60
2018-07-15T10:17:35.967Z,2.70
2018-07-15T10:20:03.678Z,3.20
2018-07-15T10:22:31.334Z,2.83
2018-07-15T10:24:59.289Z,3.02
2018-07-15T10:27:26.905Z,3.10
2018-07-15T10:29:54.574Z,2.62
2018-07-15T10:32:22.189Z,2.40
2018-07-15T10:34:49.789Z,3.50
2018-07-15T10:37:17.417Z,3.10
2018-07-15T10:39:45.080Z,2.85
2018-07-15T10:42:12.797Z,3.62
2018-07-15T10:44:40.422Z,3.30
2018-07-15T10:47:08.011Z,3.27
2018-07-15T10:49:35.641Z,3.22
2018-07-15T10:52:03.284Z,3.20
2018-07-15T10:54:30.945Z,3.22
2018-07-15T10:56:58.468Z,3.30
2018-07-15T10:59:26.429Z,3.65
2018-07-15T11:01:54.065Z,2.90
2018-07-15T11:04:21.678Z,7.33
2018-07-15T11:06:49.405Z,3.55
2018-07-15T11:09:17.034Z,2.72
2018-07-15T11:11:44.645Z,3.30
2018-07-15T11:14:12.265Z,3.25
2018-07-15T11:16:39.862Z,3.20
2018-07-15T11:19:07.497Z,3.10
2018-07-15T11:21:35.115Z,3.20
2018-07-15T11:24:02.777Z,3.35
2018-07-15T11:26:30.437Z,3.27
2018-07-15T11:28:57.998Z,3.08
2018-07-15T11:31:25.664Z,3.60
2018-07-15T11:33:53.224Z,3.85
2018-07-15T11:36:20.990Z,3.70
2018-07-15T11:38:48.594Z,3.33
2018-07-15T11:41:16.180Z,3.00
2018-07-15T11:43:43.803Z,3.10
2018-07-15T11:46:11.490Z,3.60
2018-07-15T11:48:39.104Z,3.70
2018-07-15T11:51:06.765Z,3.17
2018-07-15T11:53:34.409Z,3.22
2018-07-15T11:56:02.429Z,3.77
2018-07-15T11:58:30.036Z,3.17
2018-07-15T12:00:57.694Z,3.20
2018-07-15T12:03:25.334Z,2.87
2018-07-15T12:05:52.941Z,2.90
2018-07-15T12:08:20.549Z,3.27
2018-07-15T12:10:48.282Z,3.10
2018-07-15T12:13:15.926Z,3.40
2018-07-15T12:15:43.538Z,3.55
2018-07-15T12:18:11.169Z,3.42
2018-07-15T12:20:38.859Z,3.52
2018-07-15T12:23:06.398Z,3.05
2018-07-15T12:25:34.052Z,3.10
2018-07-15T12:28:01.655Z,2.87
2018-07-15T12:30:29.309Z,3.52
2018-07-15T12:32:57.041Z,3.08
2018-07-15T12:35:24.658Z,3.98
2018-07-15T12:37:52.429Z,3.70
2018-07-15T12:40:20.019Z,3.27
2018-07-15T12:42:47.950Z,2.83
2018-07-15T12:45:15.542Z,2.85
2018-07-15T12:47:43.145Z,2.87
2018-07-15T12:50:10.801Z,2.77
2018-07-15T12:52:38.417Z,2.60
2018-07-15T12:55:06.069Z,2.85
2018-07-15T12:57:33.727Z,2.50
2018-07-15T13:00:01.341Z,2.55
2018-07-15T13:02:28.986Z,6.62
2018-07-15T13:04:56.788Z,2.50
2018-07-15T13:07:24.410Z,2.45
2018-07-15T13:09:52.076Z,2.10
2018-07-15T13:12:19.652Z,1.95
2018-07-15T13:14:47.300Z,2.45
2018-07-15T13:17:14.930Z,2.30
2018-07-15T13:19:42.519Z,2.08
2018-07-15T13:22:10.257Z,2.30
2018-07-15T13:24:38.275Z,2.17
2018-07-15T13:27:05.926Z,1.95
2018-07-15T13:29:33.574Z,1.98
2018-07-15T13:32:01.353Z,2.35
2018-07-15T13:34:29.013Z,2.50
2018-07-15T13:36:56.625Z,2.30
2018-07-15T13:39:24.278Z,2.20
2018-07-15T13:41:51.950Z,2.30
2018-07-15T13:44:19.550Z,1.80
2018-07-15T13:46:47.461Z,2.10
2018-07-15T13:49:15.354Z,2.08
2018-07-15T13:51:42.956Z,2.00
2018-07-15T13:54:10.630Z,2.40
2018-07-15T13:56:38.263Z,1.67
2018-07-15T13:59:05.915Z,1.85
2018-07-15T14:01:34.425Z,2.20
2018-07-15T14:04:02.066Z,2.05
2018-07-15T14:06:29.625Z,1.90
2018-07-15T14:08:57.251Z,1.70
2018-07-15T14:11:24.837Z,1.60
2018-07-15T14:13:52.539Z,1.87
2018-07-15T14:16:20.105Z,1.80
2018-07-15T14:18:47.788Z,2.02
2018-07-15T14:21:15.452Z,2.10
2018-07-15T14:23:43.035Z,1.60
2018-07-15T14:26:10.965Z,1.87
2018-07-15T14:28:38.597Z,1.62
2018-07-15T14:31:06.657Z,1.70
2018-07-15T14:33:34.314Z,2.00
2018-07-15T14:36:02.140Z,1.72
2018-07-15T14:38:29.751Z,1.70
2018-07-15T14:40:57.389Z,1.80
2018-07-15T14:43:25.042Z,1.60
2018-07-15T14:45:52.705Z,1.95
2018-07-15T14:48:20.329Z,1.60
2018-07-15T14:50:47.957Z,1.85
2018-07-15T14:53:15.557Z,1.77
2018-07-15T14:55:43.175Z,1.50
2018-07-15T14:58:11.251Z,1.75
2018-07-15T15:00:38.925Z,1.52
2018-07-15T15:03:06.981Z,1.70
2018-07-15T15:05:34.592Z,1.50
2018-07-15T15:08:02.477Z,1.80
2018-07-15T15:10:30.617Z,1.87
2018-07-15T15:12:58.293Z,2.22
2018-07-15T15:15:25.917Z,3.30
2018-07-15T15:17:53.792Z,2.10
2018-07-15T15:20:21.372Z,2.10
2018-07-15T15:22:48.979Z,2.20
2018-07-15T15:25:16.587Z,2.10
2018-07-15T15:27:44.203Z,2.15
2018-07-15T15:30:11.848Z,1.80
2018-07-15T15:32:39.438Z,2.08
2018-07-15T15:35:07.100Z,1.87
2018-07-15T15:37:34.781Z,1.72
2018-07-15T15:40:02.602Z,2.00
2018-07-15T15:42:30.190Z,1.90
2018-07-15T15:44:57.852Z,1.90
2018-07-15T15:47:25.337Z,1.70
2018-07-15T15:49:52.963Z,1.50
2018-07-15T15:52:20.616Z,1.72
2018-07-15T15:54:48.217Z,1.65
2018-07-15T15:57:15.792Z,1.90
2018-07-15T15:59:43.403Z,1.70
2018-07-15T16:02:11.073Z,1.82
2018-07-15T16:04:38.673Z,2.08
2018-07-15T16:07:06.327Z,1.82
2018-07-15T16:09:33.978Z,1.72
2018-07-15T16:12:01.537Z,1.60
2018-07-15T16:14:29.201Z,1.50
2018-07-15T16:16:56.862Z,1.47
2018-07-15T16:19:24.507Z,2.47
2018-07-15T16:21:52.253Z,1.92
2018-07-15T16:24:19.834Z,1.60
2018-07-15T16:26:47.478Z,1.80
2018-07-15T16:29:15.048Z,1.50
2018-07-15T16:31:42.821Z,11.33
2018-07-15T16:34:10.561Z,3.85
2018-07-15T16:36:38.125Z,1.90
2018-07-15T16:39:06.616Z,1.62
2018-07-15T16:41:34.285Z,1.60
2018-07-15T16:44:01.897Z,1.60
2018-07-15T16:46:29.493Z,1.70
2018-07-15T16:48:57.115Z,1.92
2018-07-15T16:51:24.738Z,1.70
2018-07-15T16:53:52.313Z,1.77
2018-07-15T16:56:19.953Z,2.17
2018-07-15T16:58:47.605Z,1.80
2018-07-15T17:01:15.242Z,1.85
2018-07-15T17:03:42.931Z,1.62
2018-07-15T17:06:10.761Z,1.60
2018-07-15T17:08:38.357Z,1.80
2018-07-15T17:11:06.596Z,1.32
2018-07-15T17:13:34.260Z,1.47
2018-07-15T17:16:01.877Z,1.52
2018-07-15T17:18:29.517Z,1.95
2018-07-15T17:20:57.095Z,1.55
2018-07-15T17:23:24.676Z,1.40
2018-07-15T17:25:52.392Z,1.82
2018-07-15T17:28:19.977Z,1.60
2018-07-15T17:30:47.596Z,1.70
2018-07-15T17:33:15.276Z,1.32
2018-07-15T17:35:42.885Z,1.40
2018-07-15T17:38:10.555Z,1.60
2018-07-15T17:40:38.258Z,1.77
2018-07-15T17:43:06.076Z,1.50
2018-07-15T17:45:33.689Z,1.30
2018-07-15T17:48:01.302Z,1.42
2018-07-15T17:50:29.193Z,1.47
2018-07-15T17:52:56.823Z,1.30
2018-07-15T17:55:24.396Z,1.40
2018-07-15T17:57:52.003Z,1.50
2018-07-15T18:00:19.745Z,1.40
2018-07-15T18:02:47.773Z,1.35
2018-07-15T18:05:15.379Z,1.50
2018-07-15T18:07:42.972Z,1.32
2018-07-15T18:10:10.552Z,1.50
2018-07-15T18:12:38.181Z,1.37
2018-07-15T18:15:05.805Z,1.37
2018-07-15T18:17:33.430Z,1.40
2018-07-15T18:20:01.068Z,1.35
2018-07-15T18:22:28.688Z,1.20
2018-07-15T18:24:56.330Z,1.25
2018-07-15T18:27:23.974Z,1.50
2018-07-15T18:29:51.597Z,1.30
2018-07-15T18:32:19.271Z,1.67
2018-07-15T18:34:46.933Z,1.40
2018-07-15T18:37:14.557Z,1.37
2018-07-15T18:39:42.145Z,1.30
2018-07-15T18:42:09.768Z,1.30
2018-07-15T18:44:37.378Z,1.35
2018-07-15T18:47:05.086Z,1.50
2018-07-15T18:49:32.648Z,1.50
2018-07-15T18:52:00.385Z,1.42
2018-07-15T18:54:28.022Z,1.55
2018-07-15T18:56:55.841Z,1.40
2018-07-15T18:59:23.449Z,1.62
2018-07-15T19:01:51.113Z,1.65
2018-07-15T19:04:18.696Z,1.32
2018-07-15T19:06:46.341Z,1.62
2018-07-15T19:09:14.022Z,1.55
2018-07-15T19:11:41.624Z,1.30
2018-07-15T19:14:09.227Z,1.80
2018-07-15T19:16:36.813Z,1.50
2018-07-15T19:19:04.617Z,1.42
2018-07-15T19:21:32.279Z,2.00
2018-07-15T19:23:59.880Z,5.40
2018-07-15T19:26:27.470Z,3.40
2018-07-15T19:28:55.115Z,1.60
2018-07-15T19:31:22.757Z,1.33
2018-07-15T19:33:50.677Z,1.60
2018-07-15T19:36:18.245Z,1.40
2018-07-15T19:38:45.885Z,1.40
2018-07-15T19:41:13.612Z,1.30
2018-07-15T19:43:41.342Z,1.80
2018-07-15T19:46:08.965Z,1.10
2018-07-15T19:48:36.558Z,1.27
2018-07-15T19:51:04.205Z,1.13
2018-07-15T19:53:31.808Z,1.10
2018-07-15T19:55:59.447Z,1.27
2018-07-15T19:58:27.026Z,1.30
2018-07-15T20:00:54.739Z,1.07
2018-07-15T20:03:22.262Z,1.20
2018-07-15T20:05:49.861Z,1.10
2018-07-15T20:08:17.572Z,1.10
2018-07-15T20:10:45.148Z,1.20
2018-07-15T20:13:12.807Z,1.20
2018-07-15T20:15:40.414Z,1.07
2018-07-15T20:18:08.035Z,1.17
2018-07-15T20:20:35.686Z,1.30
2018-07-15T20:23:03.349Z,1.10
2018-07-15T20:25:30.946Z,1.07
2018-07-15T20:27:58.740Z,1.30
2018-07-15T20:30:26.365Z,0.90
2018-07-15T20:32:53.945Z,0.97
2018-07-15T20:35:21.639Z,1.10
2018-07-15T20:37:49.243Z,1.30
2018-07-15T20:40:16.844Z,1.30
2018-07-15T20:42:44.504Z,1.10
2018-07-15T20:45:12.168Z,1.13
2018-07-15T20:47:39.792Z,1.23
2018-07-15T20:50:07.720Z,1.10
2018-07-15T20:52:35.318Z,1.20
2018-07-15T20:55:02.917Z,1.00
2018-07-15T20:57:30.508Z,1.30
2018-07-15T20:59:58.085Z,2.10
2018-07-15T21:02:26.101Z,2.47
2018-07-15T21:04:53.774Z,1.73
2018-07-15T21:07:21.411Z,1.30
2018-07-15T21:09:49.011Z,1.30
2018-07-15T21:12:16.631Z,1.40
2018-07-15T21:14:44.457Z,1.20
2018-07-15T21:17:12.111Z,1.30
2018-07-15T21:19:39.725Z,1.23
2018-07-15T21:22:07.617Z,1.27
2018-07-15T21:24:35.234Z,1.30
2018-07-15T21:27:02.846Z,1.30
2018-07-15T21:29:30.824Z,1.20
2018-07-15T21:31:58.440Z,1.10
2018-07-15T21:34:26.031Z,1.20
2018-07-15T21:36:53.699Z,1.40
2018-07-15T21:39:21.310Z,1.20
2018-07-15T21:41:48.873Z,1.30
2018-07-15T21:44:16.689Z,1.07
2018-07-15T21:46:44.220Z,1.40
2018-07-15T21:49:11.772Z,1.30
2018-07-15T21:51:39.385Z,1.20
2018-07-15T21:54:07.104Z,1.17
2018-07-15T21:56:34.689Z,1.30
2018-07-15T21:59:02.265Z,1.20
2018-07-15T22:01:42.345Z,1.00
2018-07-15T22:04:10.525Z,1.00
2018-07-15T22:06:49.481Z,1.20
2018-07-15T22:09:28.932Z,1.03
2018-07-15T22:11:57.832Z,0.83
2018-07-15T22:14:25.420Z,1.30
2018-07-15T22:16:53.002Z,1.30
2018-07-15T22:19:20.768Z,1.30
2018-07-15T22:21:48.391Z,1.10
2018-07-15T22:24:16.017Z,1.43
2018-07-15T22:26:43.636Z,1.33
2018-07-15T22:29:11.178Z,1.37
2018-07-15T22:31:39.120Z,1.00
2018-07-15T22:34:06.984Z,1.20
2018-07-15T22:36:35.065Z,1.00
2018-07-15T22:39:04.324Z,1.10
2018-07-15T22:41:32.022Z,1.33
2018-07-15T22:43:59.612Z,1.20
2018-07-15T22:46:27.310Z,1.43
2018-07-15T22:48:54.907Z,1.50
2018-07-15T22:51:22.701Z,1.20
2018-07-15T22:53:50.365Z,1.17
2018-07-15T22:56:17.962Z,1.10
2018-07-15T22:58:45.584Z,1.63
2018-07-15T23:01:13.249Z,1.40
2018-07-15T23:03:40.906Z,1.40
2018-07-15T23:06:16.866Z,1.50
2018-07-15T23:08:44.453Z,1.83
2018-07-15T23:11:12.021Z,1.80
2018-07-15T23:13:39.586Z,2.30
2018-07-15T23:16:07.372Z,1.63
2018-07-15T23:18:35.010Z,1.30
2018-07-15T23:21:02.637Z,1.80
2018-07-15T23:23:30.324Z,1.70
2018-07-15T23:25:58.046Z,1.90
2018-07-15T23:28:25.692Z,1.43
2018-07-15T23:30:53.301Z,2.87
2018-07-15T23:33:21.163Z,1.30
2018-07-15T23:35:48.803Z,1.47
2018-07-15T23:38:16.400Z,1.27
2018-07-15T23:40:44.026Z,1.43
2018-07-15T23:43:11.612Z,1.30
2018-07-15T23:45:39.231Z,1.20
2018-07-15T23:48:06.863Z,1.27
2018-07-15T23:50:34.498Z,1.30
2018-07-15T23:53:02.078Z,1.60
2018-07-15T23:55:29.859Z,1.40
2018-07-15T23:57:57.454Z,1.50
